This is the latest recevied weather packets stored in our database for station/object KB9PVH-3. If no packets are shown the sender has not sent any weather packets the latest 10 day(s).
| Time | Temp. | Humidity | Pressure | Rain* | Wind** | Luminosity | Snow |
|---|---|---|---|---|---|---|---|
| 1777649428 | 7.22° C | 63% | 1018.9 hPa | 0 mm | - | - | - |
| 1777648407 | 6.67° C | 65% | 1018.7 hPa | 0 mm | - | - | - |
| 1777647357 | 7.78° C | 66% | 1018.6 hPa | 0 mm | - | - | - |
| 1777646312 | 7.78° C | 61% | 1018.4 hPa | 0 mm | - | - | - |
| 1777645261 | 7.22° C | 72% | 1018.8 hPa | 0 mm | - | - | - |
| 1777644207 | 7.22° C | 74% | 1018.6 hPa | 0 mm | - | - | - |
| 1777642107 | 6.11° C | 81% | 1018.6 hPa | 0 mm | - | - | - |
| 1777641057 | 5° C | 86% | 1018.5 hPa | 0 mm | - | - | - |
| 1777640012 | 3.89° C | 91% | 1018.5 hPa | 0 mm | - | - | - |
| 1777638957 | 3.33° C | 96% | 1018.5 hPa | 0 mm | - | - | - |
| 1777636857 | 2.22° C | 98% | 1018.2 hPa | 0 mm | - | - | - |
| 1777635808 | 1.67° C | 98% | 1018 hPa | 0 mm | - | - | - |
| 1777634757 | 1.11° C | 98% | 1017.8 hPa | 0 mm | - | - | - |
| 1777633709 | 1.11° C | 97% | 1017.6 hPa | 0 mm | - | - | - |
| 1777631607 | 1.11° C | 97% | 1017.3 hPa | 0 mm | - | - | - |
| 1777630557 | 1.67° C | 96% | 1017.6 hPa | 0 mm | - | - | - |
| 1777629509 | 1.67° C | 96% | 1017.6 hPa | 0 mm | - | - | - |
| 1777628458 | 2.22° C | 96% | 1017.5 hPa | 0 mm | - | - | - |
| 1777627407 | 2.22° C | 95% | 1017.4 hPa | 0 mm | - | - | - |
| 1777626357 | 2.22° C | 94% | 1017.4 hPa | 0 mm | - | - | - |
| 1777625307 | 2.78° C | 93% | 1017.2 hPa | 0 mm | - | - | - |
| 1777624258 | 2.78° C | 93% | 1017.4 hPa | 0 mm | - | - | - |
| 1777623207 | 3.33° C | 93% | 1017.2 hPa | 0 mm | - | - | - |
| 1777622158 | 3.33° C | 93% | 1017.1 hPa | 0 mm | - | - | - |
| 1777621107 | 3.33° C | 92% | 1017.2 hPa | 0 mm | - | - | - |
* Rain latest hour (hover to see other rain measurements)
** Current wind speed in m/s (hover to see current wind gust speed)